Aérodrome :
LOGIN :

S'inscrire | Disclaimer

   EN    FR    IT 

 










Légende :    VFR   VFR Marginal   IFR   IFR Intensif   IFR Très Intensif
Visi : 
Plafond : 
>= 8 km
>= 3000ft
5 à 8 km
1000 à 3000 ft
1500m à 5 km
500 à 1000 ft
800 à 1500m
200 à 500 ft
< 800m
< 200 ft
Symboles :   Orages  Brouillard  Fortes neiges  Fortes précipitations  Vent > 20 kt
SIGMETs :   Divers  Orages  Givrage  Turbulence  Onde Orograph.  Cendres Volcan.







- Altitude de l'aérodrome : 183 ft
- Code IATA : HAJ


EDDV - Hanover/Langenhagen Int.

DERNIER METAR :
  • 211350Z 26012KT 9999 BKN023 11/06 Q1024 NOSIG

METARs EXPIRÉS :
  • 211320Z 27013G24KT 240V300 9999 SCT024 11/06 Q1024 NOSIG
  • 211250Z 26014KT 230V290 9999 FEW022 11/06 Q1024 NOSIG
  • 211220Z 26013KT 230V290 9999 FEW022 BKN044 11/06 Q1024 NOSIG
  • 211150Z 26012KT 9999 FEW022 BKN044 10/06 Q1024 NOSIG
  • 211120Z 26013KT 9999 -RA FEW022 BKN048 10/05 Q1024 NOSIG

TAF TAF EDDV
Valide du 21 à 12h jusqu'au 22 à 12h UTC


211100Z 2112/2212 26012KT 9999 BKN030
BECMG 2115/2118 BKN012
TEMPO 2116/2124 4000 -RADZ BKN008
BECMG 2121/2124 32007KT
TEMPO 2200/2208 3500 BR BKN007
BECMG 2206/2209 05007KT
Pas de NOTAMs connus pour ce terrain.



MET'MAP, la Météo Aéronautique d'un coup d'oeil ! - Copyright ORBIFLY Décembre 2007 - Disclaimer

ORBIFLY MET'MAP TEAM :

Programmation & Développement : Alexandra Zaïnal
Conception & Développement : Baudouin d'Aumeries
Co-Programmation & Développement : Marc-Olivier Méhu
Soutien technique & logistique : Manuel Goepfert

Contact : metmap@orbifly.com




SOURCES & CREDITS :

   NOAA